sensor_id;sensor_type;location;lat;lon;timestamp;P1;durP1;ratioP1;P2;durP2;ratioP2
40122;SDS011;25832;45.490;4.912;2023-01-15T00:00:19;16.08;;;2.47;;
40122;SDS011;25832;45.490;4.912;2023-01-15T00:02:45;5.82;;;2.10;;
40122;SDS011;25832;45.490;4.912;2023-01-15T00:05:11;4.40;;;2.10;;
40122;SDS011;25832;45.490;4.912;2023-01-15T00:07:36;6.65;;;1.90;;
40122;SDS011;25832;45.490;4.912;2023-01-15T00:10:02;4.70;;;1.65;;
40122;SDS011;25832;45.490;4.912;2023-01-15T00:12:28;6.70;;;2.03;;
40122;SDS011;25832;45.490;4.912;2023-01-15T00:14:54;2.83;;;1.58;;
40122;SDS011;25832;45.490;4.912;2023-01-15T00:17:21;3.97;;;1.50;;
40122;SDS011;25832;45.490;4.912;2023-01-15T00:19:47;3.03;;;1.58;;
40122;SDS011;25832;45.490;4.912;2023-01-15T00:22:13;4.55;;;1.75;;
40122;SDS011;25832;45.490;4.912;2023-01-15T00:24:39;5.63;;;2.00;;
40122;SDS011;25832;45.490;4.912;2023-01-15T00:27:23;6.32;;;2.00;;
40122;SDS011;25832;45.490;4.912;2023-01-15T00:30:04;9.38;;;2.45;;
40122;SDS011;25832;45.490;4.912;2023-01-15T00:32:31;4.15;;;1.50;;
40122;SDS011;25832;45.490;4.912;2023-01-15T00:34:57;5.15;;;1.52;;
40122;SDS011;25832;45.490;4.912;2023-01-15T00:37:23;2.67;;;1.67;;
40122;SDS011;25832;45.490;4.912;2023-01-15T00:39:49;4.25;;;1.85;;
40122;SDS011;25832;45.490;4.912;2023-01-15T00:42:15;5.25;;;2.05;;
40122;SDS011;25832;45.490;4.912;2023-01-15T00:44:42;10.80;;;2.10;;
40122;SDS011;25832;45.490;4.912;2023-01-15T00:47:08;4.13;;;1.75;;
40122;SDS011;25832;45.490;4.912;2023-01-15T00:49:38;7.95;;;2.30;;
40122;SDS011;25832;45.490;4.912;2023-01-15T00:52:07;6.32;;;1.90;;
40122;SDS011;25832;45.490;4.912;2023-01-15T00:54:34;4.57;;;1.45;;
40122;SDS011;25832;45.490;4.912;2023-01-15T00:56:59;13.60;;;4.63;;
40122;SDS011;25832;45.490;4.912;2023-01-15T00:59:25;6.85;;;2.20;;
40122;SDS011;25832;45.490;4.912;2023-01-15T01:01:51;5.80;;;1.50;;
40122;SDS011;25832;45.490;4.912;2023-01-15T01:04:17;4.15;;;1.48;;
40122;SDS011;25832;45.490;4.912;2023-01-15T01:06:42;3.55;;;2.00;;
40122;SDS011;25832;45.490;4.912;2023-01-15T01:09:11;6.25;;;1.95;;
40122;SDS011;25832;45.490;4.912;2023-01-15T01:11:38;3.70;;;1.30;;
40122;SDS011;25832;45.490;4.912;2023-01-15T01:14:03;7.75;;;1.67;;
40122;SDS011;25832;45.490;4.912;2023-01-15T01:16:36;4.93;;;1.45;;
40122;SDS011;25832;45.490;4.912;2023-01-15T01:19:04;3.22;;;1.58;;
40122;SDS011;25832;45.490;4.912;2023-01-15T01:21:33;2.83;;;1.30;;
40122;SDS011;25832;45.490;4.912;2023-01-15T01:23:59;5.68;;;2.28;;
40122;SDS011;25832;45.490;4.912;2023-01-15T01:26:26;7.65;;;2.38;;
40122;SDS011;25832;45.490;4.912;2023-01-15T01:28:52;4.43;;;2.35;;
40122;SDS011;25832;45.490;4.912;2023-01-15T01:31:18;7.25;;;1.77;;
40122;SDS011;25832;45.490;4.912;2023-01-15T01:33:46;5.68;;;1.92;;
40122;SDS011;25832;45.490;4.912;2023-01-15T01:36:13;2.97;;;1.50;;
40122;SDS011;25832;45.490;4.912;2023-01-15T01:38:39;7.30;;;1.83;;
40122;SDS011;25832;45.490;4.912;2023-01-15T01:41:05;4.28;;;1.67;;
40122;SDS011;25832;45.490;4.912;2023-01-15T01:43:49;2.55;;;1.70;;
40122;SDS011;25832;45.490;4.912;2023-01-15T01:46:27;6.13;;;2.15;;
40122;SDS011;25832;45.490;4.912;2023-01-15T01:48:55;5.47;;;2.40;;
40122;SDS011;25832;45.490;4.912;2023-01-15T01:51:26;4.15;;;1.75;;
40122;SDS011;25832;45.490;4.912;2023-01-15T01:53:56;7.35;;;2.22;;
40122;SDS011;25832;45.490;4.912;2023-01-15T01:56:24;3.92;;;1.63;;
40122;SDS011;25832;45.490;4.912;2023-01-15T01:58:51;3.13;;;1.40;;
40122;SDS011;25832;45.490;4.912;2023-01-15T02:01:19;4.85;;;1.50;;
40122;SDS011;25832;45.490;4.912;2023-01-15T02:03:48;2.85;;;1.38;;
40122;SDS011;25832;45.490;4.912;2023-01-15T02:06:14;4.50;;;1.65;;
40122;SDS011;25832;45.490;4.912;2023-01-15T02:08:40;6.50;;;2.28;;
40122;SDS011;25832;45.490;4.912;2023-01-15T02:11:07;3.35;;;1.75;;
40122;SDS011;25832;45.490;4.912;2023-01-15T02:14:04;4.97;;;1.55;;
40122;SDS011;25832;45.490;4.912;2023-01-15T02:25:31;5.35;;;1.88;;
40122;SDS011;25832;45.490;4.912;2023-01-15T02:30:39;4.40;;;1.55;;
40122;SDS011;25832;45.490;4.912;2023-01-15T02:33:19;4.95;;;2.20;;
40122;SDS011;25832;45.490;4.912;2023-01-15T02:36:07;10.13;;;2.47;;
40122;SDS011;25832;45.490;4.912;2023-01-15T02:38:42;7.10;;;2.28;;
40122;SDS011;25832;45.490;4.912;2023-01-15T02:41:10;7.25;;;2.20;;
40122;SDS011;25832;45.490;4.912;2023-01-15T02:43:42;3.88;;;1.83;;
40122;SDS011;25832;45.490;4.912;2023-01-15T02:46:12;7.18;;;2.63;;
40122;SDS011;25832;45.490;4.912;2023-01-15T02:48:39;3.85;;;1.60;;
40122;SDS011;25832;45.490;4.912;2023-01-15T02:51:10;6.00;;;1.88;;
40122;SDS011;25832;45.490;4.912;2023-01-15T02:53:41;4.70;;;1.95;;
40122;SDS011;25832;45.490;4.912;2023-01-15T02:56:12;6.38;;;2.55;;
40122;SDS011;25832;45.490;4.912;2023-01-15T02:58:41;4.53;;;2.10;;
40122;SDS011;25832;45.490;4.912;2023-01-15T03:01:10;5.25;;;2.13;;
40122;SDS011;25832;45.490;4.912;2023-01-15T03:04:11;9.82;;;3.08;;
40122;SDS011;25832;45.490;4.912;2023-01-15T03:11:37;2.97;;;1.80;;
40122;SDS011;25832;45.490;4.912;2023-01-15T03:14:13;7.47;;;2.72;;
40122;SDS011;25832;45.490;4.912;2023-01-15T03:16:49;6.57;;;2.58;;
40122;SDS011;25832;45.490;4.912;2023-01-15T03:22:14;6.63;;;1.90;;
40122;SDS011;25832;45.490;4.912;2023-01-15T03:24:52;7.05;;;1.88;;
40122;SDS011;25832;45.490;4.912;2023-01-15T03:27:21;7.22;;;2.95;;
40122;SDS011;25832;45.490;4.912;2023-01-15T03:29:49;7.05;;;2.22;;
40122;SDS011;25832;45.490;4.912;2023-01-15T03:32:17;8.13;;;2.80;;
40122;SDS011;25832;45.490;4.912;2023-01-15T03:34:53;10.40;;;3.47;;
40122;SDS011;25832;45.490;4.912;2023-01-15T03:37:20;7.15;;;2.63;;
40122;SDS011;25832;45.490;4.912;2023-01-15T03:39:48;7.82;;;2.70;;
40122;SDS011;25832;45.490;4.912;2023-01-15T03:45:43;12.57;;;3.38;;
40122;SDS011;25832;45.490;4.912;2023-01-15T03:53:40;4.55;;;2.13;;
40122;SDS011;25832;45.490;4.912;2023-01-15T04:01:36;8.50;;;2.97;;
40122;SDS011;25832;45.490;4.912;2023-01-15T04:04:04;6.63;;;2.78;;
40122;SDS011;25832;45.490;4.912;2023-01-15T04:06:31;7.25;;;2.65;;
40122;SDS011;25832;45.490;4.912;2023-01-15T04:08:59;4.47;;;2.40;;
40122;SDS011;25832;45.490;4.912;2023-01-15T04:11:29;8.32;;;2.28;;
40122;SDS011;25832;45.490;4.912;2023-01-15T04:13:54;6.68;;;2.90;;
40122;SDS011;25832;45.490;4.912;2023-01-15T04:16:23;8.95;;;3.22;;
40122;SDS011;25832;45.490;4.912;2023-01-15T04:18:51;7.75;;;2.55;;
40122;SDS011;25832;45.490;4.912;2023-01-15T04:21:17;5.05;;;2.35;;
40122;SDS011;25832;45.490;4.912;2023-01-15T04:23:43;9.93;;;3.15;;
40122;SDS011;25832;45.490;4.912;2023-01-15T04:26:10;13.43;;;3.22;;
40122;SDS011;25832;45.490;4.912;2023-01-15T04:28:36;7.75;;;2.72;;
40122;SDS011;25832;45.490;4.912;2023-01-15T04:31:02;5.00;;;2.40;;
40122;SDS011;25832;45.490;4.912;2023-01-15T04:33:27;11.45;;;2.70;;
40122;SDS011;25832;45.490;4.912;2023-01-15T04:35:53;7.30;;;3.17;;
40122;SDS011;25832;45.490;4.912;2023-01-15T04:38:19;6.28;;;2.97;;
40122;SDS011;25832;45.490;4.912;2023-01-15T04:40:44;7.25;;;3.05;;
40122;SDS011;25832;45.490;4.912;2023-01-15T04:43:28;4.32;;;2.72;;
40122;SDS011;25832;45.490;4.912;2023-01-15T04:46:13;7.15;;;3.38;;
40122;SDS011;25832;45.490;4.912;2023-01-15T04:48:38;6.65;;;2.83;;
40122;SDS011;25832;45.490;4.912;2023-01-15T04:51:04;6.50;;;2.95;;
40122;SDS011;25832;45.490;4.912;2023-01-15T04:53:31;12.05;;;3.63;;
40122;SDS011;25832;45.490;4.912;2023-01-15T04:56:04;7.38;;;2.50;;
40122;SDS011;25832;45.490;4.912;2023-01-15T04:58:30;8.07;;;2.80;;
40122;SDS011;25832;45.490;4.912;2023-01-15T05:00:56;5.60;;;2.90;;
40122;SDS011;25832;45.490;4.912;2023-01-15T05:03:24;6.53;;;3.20;;
40122;SDS011;25832;45.490;4.912;2023-01-15T05:05:51;8.25;;;2.80;;
40122;SDS011;25832;45.490;4.912;2023-01-15T05:08:16;8.80;;;2.75;;
40122;SDS011;25832;45.490;4.912;2023-01-15T05:10:42;5.93;;;3.05;;
40122;SDS011;25832;45.490;4.912;2023-01-15T05:13:08;6.88;;;2.85;;
40122;SDS011;25832;45.490;4.912;2023-01-15T05:15:33;9.35;;;2.72;;
40122;SDS011;25832;45.490;4.912;2023-01-15T05:17:59;8.65;;;2.78;;
40122;SDS011;25832;45.490;4.912;2023-01-15T05:20:24;6.80;;;3.22;;
40122;SDS011;25832;45.490;4.912;2023-01-15T05:22:50;9.98;;;3.15;;
40122;SDS011;25832;45.490;4.912;2023-01-15T05:25:16;6.47;;;2.20;;
40122;SDS011;25832;45.490;4.912;2023-01-15T05:27:41;7.03;;;3.10;;
40122;SDS011;25832;45.490;4.912;2023-01-15T05:30:07;6.10;;;2.83;;
40122;SDS011;25832;45.490;4.912;2023-01-15T05:32:33;11.50;;;3.17;;
40122;SDS011;25832;45.490;4.912;2023-01-15T05:34:59;6.90;;;3.17;;
40122;SDS011;25832;45.490;4.912;2023-01-15T05:37:25;8.43;;;3.65;;
40122;SDS011;25832;45.490;4.912;2023-01-15T05:39:53;9.95;;;3.70;;
40122;SDS011;25832;45.490;4.912;2023-01-15T05:42:19;7.07;;;3.10;;
40122;SDS011;25832;45.490;4.912;2023-01-15T05:44:44;5.28;;;3.22;;
40122;SDS011;25832;45.490;4.912;2023-01-15T05:47:10;8.52;;;3.60;;
40122;SDS011;25832;45.490;4.912;2023-01-15T05:49:36;5.70;;;3.88;;
40122;SDS011;25832;45.490;4.912;2023-01-15T05:52:02;6.45;;;4.38;;
40122;SDS011;25832;45.490;4.912;2023-01-15T05:54:29;10.63;;;4.35;;
40122;SDS011;25832;45.490;4.912;2023-01-15T05:56:56;9.45;;;4.00;;
40122;SDS011;25832;45.490;4.912;2023-01-15T05:59:23;13.38;;;4.43;;
40122;SDS011;25832;45.490;4.912;2023-01-15T06:01:50;9.13;;;4.28;;
40122;SDS011;25832;45.490;4.912;2023-01-15T06:04:17;9.02;;;4.40;;
40122;SDS011;25832;45.490;4.912;2023-01-15T06:06:45;9.18;;;4.38;;
40122;SDS011;25832;45.490;4.912;2023-01-15T06:09:12;9.00;;;4.47;;
40122;SDS011;25832;45.490;4.912;2023-01-15T06:11:38;9.63;;;4.75;;
40122;SDS011;25832;45.490;4.912;2023-01-15T06:14:05;15.23;;;5.90;;
40122;SDS011;25832;45.490;4.912;2023-01-15T06:16:31;12.75;;;5.30;;
40122;SDS011;25832;45.490;4.912;2023-01-15T06:19:00;10.32;;;4.78;;
40122;SDS011;25832;45.490;4.912;2023-01-15T06:21:28;8.50;;;4.50;;
40122;SDS011;25832;45.490;4.912;2023-01-15T06:23:54;11.75;;;5.80;;
40122;SDS011;25832;45.490;4.912;2023-01-15T06:26:20;13.75;;;5.05;;
40122;SDS011;25832;45.490;4.912;2023-01-15T06:28:46;11.13;;;4.72;;
40122;SDS011;25832;45.490;4.912;2023-01-15T06:31:13;14.60;;;5.65;;
40122;SDS011;25832;45.490;4.912;2023-01-15T06:33:40;10.63;;;5.25;;
40122;SDS011;25832;45.490;4.912;2023-01-15T06:36:10;9.73;;;5.72;;
40122;SDS011;25832;45.490;4.912;2023-01-15T06:38:38;13.27;;;5.15;;
40122;SDS011;25832;45.490;4.912;2023-01-15T06:41:05;12.88;;;5.53;;
40122;SDS011;25832;45.490;4.912;2023-01-15T06:43:50;10.38;;;4.97;;
40122;SDS011;25832;45.490;4.912;2023-01-15T06:46:36;12.60;;;5.57;;
40122;SDS011;25832;45.490;4.912;2023-01-15T06:49:26;13.90;;;5.53;;
40122;SDS011;25832;45.490;4.912;2023-01-15T06:51:51;17.05;;;6.50;;
40122;SDS011;25832;45.490;4.912;2023-01-15T06:54:17;8.85;;;4.80;;
40122;SDS011;25832;45.490;4.912;2023-01-15T06:56:42;11.13;;;5.72;;
40122;SDS011;25832;45.490;4.912;2023-01-15T06:59:08;16.98;;;5.65;;
40122;SDS011;25832;45.490;4.912;2023-01-15T07:01:34;10.48;;;5.88;;
40122;SDS011;25832;45.490;4.912;2023-01-15T07:03:59;12.35;;;6.18;;
40122;SDS011;25832;45.490;4.912;2023-01-15T07:06:25;14.45;;;6.40;;
40122;SDS011;25832;45.490;4.912;2023-01-15T07:08:51;12.80;;;5.55;;
40122;SDS011;25832;45.490;4.912;2023-01-15T07:11:17;12.02;;;5.43;;
40122;SDS011;25832;45.490;4.912;2023-01-15T07:13:43;12.00;;;5.45;;
40122;SDS011;25832;45.490;4.912;2023-01-15T07:16:09;11.82;;;5.15;;
40122;SDS011;25832;45.490;4.912;2023-01-15T07:18:51;14.25;;;5.85;;
40122;SDS011;25832;45.490;4.912;2023-01-15T07:21:17;12.27;;;5.78;;
40122;SDS011;25832;45.490;4.912;2023-01-15T07:23:42;12.25;;;5.90;;
40122;SDS011;25832;45.490;4.912;2023-01-15T07:26:08;11.85;;;5.80;;
40122;SDS011;25832;45.490;4.912;2023-01-15T07:28:34;13.05;;;5.95;;
40122;SDS011;25832;45.490;4.912;2023-01-15T07:30:59;15.27;;;5.28;;
40122;SDS011;25832;45.490;4.912;2023-01-15T07:33:25;15.73;;;5.60;;
40122;SDS011;25832;45.490;4.912;2023-01-15T07:35:51;9.48;;;5.70;;
40122;SDS011;25832;45.490;4.912;2023-01-15T07:38:16;10.38;;;6.03;;
40122;SDS011;25832;45.490;4.912;2023-01-15T07:40:42;10.93;;;6.03;;
40122;SDS011;25832;45.490;4.912;2023-01-15T07:43:08;11.30;;;5.85;;
40122;SDS011;25832;45.490;4.912;2023-01-15T07:45:53;12.95;;;5.65;;
40122;SDS011;25832;45.490;4.912;2023-01-15T07:48:37;12.60;;;5.15;;
40122;SDS011;25832;45.490;4.912;2023-01-15T07:51:21;14.88;;;6.30;;
40122;SDS011;25832;45.490;4.912;2023-01-15T07:53:47;11.27;;;6.07;;
40122;SDS011;25832;45.490;4.912;2023-01-15T07:56:12;12.32;;;6.57;;
40122;SDS011;25832;45.490;4.912;2023-01-15T07:58:39;14.32;;;6.72;;
40122;SDS011;25832;45.490;4.912;2023-01-15T08:01:04;14.50;;;5.15;;
40122;SDS011;25832;45.490;4.912;2023-01-15T08:03:30;14.60;;;5.78;;
40122;SDS011;25832;45.490;4.912;2023-01-15T08:05:56;10.35;;;5.47;;
40122;SDS011;25832;45.490;4.912;2023-01-15T08:08:21;8.43;;;5.40;;
40122;SDS011;25832;45.490;4.912;2023-01-15T08:10:47;10.52;;;5.28;;
40122;SDS011;25832;45.490;4.912;2023-01-15T08:13:31;8.25;;;5.40;;
40122;SDS011;25832;45.490;4.912;2023-01-15T08:16:15;11.43;;;5.07;;
40122;SDS011;25832;45.490;4.912;2023-01-15T08:18:41;13.13;;;5.45;;
40122;SDS011;25832;45.490;4.912;2023-01-15T08:21:12;11.73;;;4.80;;
40122;SDS011;25832;45.490;4.912;2023-01-15T08:23:39;8.10;;;3.80;;
40122;SDS011;25832;45.490;4.912;2023-01-15T08:26:07;4.65;;;2.47;;
40122;SDS011;25832;45.490;4.912;2023-01-15T08:28:33;8.75;;;1.63;;
40122;SDS011;25832;45.490;4.912;2023-01-15T08:30:58;2.20;;;0.95;;
40122;SDS011;25832;45.490;4.912;2023-01-15T08:33:24;6.63;;;2.50;;
40122;SDS011;25832;45.490;4.912;2023-01-15T08:35:49;1.35;;;0.90;;
40122;SDS011;25832;45.490;4.912;2023-01-15T08:38:15;4.45;;;1.40;;
40122;SDS011;25832;45.490;4.912;2023-01-15T08:40:41;3.70;;;1.90;;
40122;SDS011;25832;45.490;4.912;2023-01-15T08:43:26;4.50;;;2.35;;
40122;SDS011;25832;45.490;4.912;2023-01-15T08:45:57;3.80;;;2.25;;
40122;SDS011;25832;45.490;4.912;2023-01-15T08:48:24;2.38;;;0.90;;
40122;SDS011;25832;45.490;4.912;2023-01-15T08:50:50;2.05;;;1.02;;
40122;SDS011;25832;45.490;4.912;2023-01-15T08:53:16;1.55;;;0.70;;
40122;SDS011;25832;45.490;4.912;2023-01-15T08:55:45;1.13;;;0.68;;
40122;SDS011;25832;45.490;4.912;2023-01-15T08:58:12;1.13;;;0.60;;
40122;SDS011;25832;45.490;4.912;2023-01-15T09:00:38;0.82;;;0.43;;
40122;SDS011;25832;45.490;4.912;2023-01-15T09:03:04;1.10;;;0.80;;
40122;SDS011;25832;45.490;4.912;2023-01-15T09:05:30;1.45;;;0.70;;
40122;SDS011;25832;45.490;4.912;2023-01-15T09:07:56;1.80;;;0.80;;
40122;SDS011;25832;45.490;4.912;2023-01-15T09:10:21;1.85;;;0.65;;
40122;SDS011;25832;45.490;4.912;2023-01-15T09:12:48;0.75;;;0.40;;
40122;SDS011;25832;45.490;4.912;2023-01-15T09:15:14;1.67;;;0.88;;
40122;SDS011;25832;45.490;4.912;2023-01-15T09:17:41;2.05;;;0.90;;
40122;SDS011;25832;45.490;4.912;2023-01-15T09:20:07;3.67;;;2.05;;
40122;SDS011;25832;45.490;4.912;2023-01-15T09:22:35;4.93;;;1.60;;
40122;SDS011;25832;45.490;4.912;2023-01-15T09:25:00;1.40;;;0.95;;
40122;SDS011;25832;45.490;4.912;2023-01-15T09:27:27;2.65;;;1.23;;
40122;SDS011;25832;45.490;4.912;2023-01-15T09:29:53;2.22;;;1.20;;
40122;SDS011;25832;45.490;4.912;2023-01-15T09:32:19;4.28;;;2.70;;
40122;SDS011;25832;45.490;4.912;2023-01-15T09:34:45;4.07;;;2.13;;
40122;SDS011;25832;45.490;4.912;2023-01-15T09:37:11;2.50;;;1.40;;
40122;SDS011;25832;45.490;4.912;2023-01-15T09:39:37;1.77;;;1.00;;
40122;SDS011;25832;45.490;4.912;2023-01-15T09:50:15;2.63;;;1.05;;
40122;SDS011;25832;45.490;4.912;2023-01-15T09:53:01;2.13;;;1.23;;
40122;SDS011;25832;45.490;4.912;2023-01-15T09:55:53;5.78;;;2.63;;
40122;SDS011;25832;45.490;4.912;2023-01-15T09:58:21;2.65;;;1.23;;
40122;SDS011;25832;45.490;4.912;2023-01-15T10:01:09;5.32;;;2.40;;
40122;SDS011;25832;45.490;4.912;2023-01-15T10:09:10;13.30;;;6.35;;
40122;SDS011;25832;45.490;4.912;2023-01-15T10:11:44;37.22;;;12.73;;
40122;SDS011;25832;45.490;4.912;2023-01-15T10:14:35;2.95;;;1.02;;
40122;SDS011;25832;45.490;4.912;2023-01-15T10:17:30;2.03;;;0.93;;
40122;SDS011;25832;45.490;4.912;2023-01-15T10:20:00;1.33;;;0.90;;
40122;SDS011;25832;45.490;4.912;2023-01-15T10:24:55;1.83;;;1.10;;
40122;SDS011;25832;45.490;4.912;2023-01-15T10:27:22;3.17;;;1.52;;
40122;SDS011;25832;45.490;4.912;2023-01-15T10:32:38;5.78;;;3.58;;
40122;SDS011;25832;45.490;4.912;2023-01-15T10:38:15;5.03;;;2.75;;
40122;SDS011;25832;45.490;4.912;2023-01-15T10:45:59;2.45;;;1.40;;
40122;SDS011;25832;45.490;4.912;2023-01-15T10:48:46;1.58;;;1.00;;
40122;SDS011;25832;45.490;4.912;2023-01-15T10:51:20;2.75;;;1.55;;
40122;SDS011;25832;45.490;4.912;2023-01-15T11:01:58;5.13;;;3.08;;
40122;SDS011;25832;45.490;4.912;2023-01-15T11:04:26;4.18;;;2.22;;
40122;SDS011;25832;45.490;4.912;2023-01-15T11:06:55;4.65;;;2.60;;
40122;SDS011;25832;45.490;4.912;2023-01-15T11:09:22;5.82;;;2.72;;
40122;SDS011;25832;45.490;4.912;2023-01-15T11:14:40;7.25;;;3.28;;
40122;SDS011;25832;45.490;4.912;2023-01-15T11:17:36;6.68;;;2.75;;
40122;SDS011;25832;45.490;4.912;2023-01-15T11:20:32;5.05;;;3.10;;
40122;SDS011;25832;45.490;4.912;2023-01-15T11:23:19;4.18;;;2.53;;
40122;SDS011;25832;45.490;4.912;2023-01-15T11:28:31;2.90;;;1.83;;
40122;SDS011;25832;45.490;4.912;2023-01-15T11:31:07;6.45;;;3.30;;
40122;SDS011;25832;45.490;4.912;2023-01-15T11:33:34;4.05;;;2.42;;
40122;SDS011;25832;45.490;4.912;2023-01-15T11:36:05;4.22;;;2.17;;
40122;SDS011;25832;45.490;4.912;2023-01-15T11:38:43;5.45;;;2.95;;
40122;SDS011;25832;45.490;4.912;2023-01-15T11:41:20;7.57;;;3.30;;
40122;SDS011;25832;45.490;4.912;2023-01-15T11:43:53;10.25;;;4.85;;
40122;SDS011;25832;45.490;4.912;2023-01-15T11:46:39;7.45;;;2.88;;
40122;SDS011;25832;45.490;4.912;2023-01-15T11:49:24;8.20;;;3.20;;
40122;SDS011;25832;45.490;4.912;2023-01-15T11:52:18;4.00;;;2.22;;
40122;SDS011;25832;45.490;4.912;2023-01-15T11:54:48;3.35;;;2.00;;
40122;SDS011;25832;45.490;4.912;2023-01-15T11:57:24;2.65;;;1.55;;
40122;SDS011;25832;45.490;4.912;2023-01-15T12:00:01;3.08;;;1.90;;
40122;SDS011;25832;45.490;4.912;2023-01-15T12:02:30;2.33;;;1.50;;
40122;SDS011;25832;45.490;4.912;2023-01-15T12:05:23;3.25;;;1.58;;
40122;SDS011;25832;45.490;4.912;2023-01-15T12:07:54;2.65;;;1.20;;
40122;SDS011;25832;45.490;4.912;2023-01-15T12:10:25;2.38;;;1.20;;
40122;SDS011;25832;45.490;4.912;2023-01-15T12:13:35;4.43;;;1.58;;
40122;SDS011;25832;45.490;4.912;2023-01-15T12:18:55;3.38;;;1.95;;
40122;SDS011;25832;45.490;4.912;2023-01-15T12:29:43;2.65;;;1.40;;
40122;SDS011;25832;45.490;4.912;2023-01-15T12:32:17;1.98;;;1.33;;
40122;SDS011;25832;45.490;4.912;2023-01-15T12:34:49;4.53;;;2.47;;
40122;SDS011;25832;45.490;4.912;2023-01-15T12:37:19;1.55;;;0.80;;
40122;SDS011;25832;45.490;4.912;2023-01-15T12:39:59;2.55;;;1.17;;
40122;SDS011;25832;45.490;4.912;2023-01-15T12:42:59;2.42;;;1.45;;
40122;SDS011;25832;45.490;4.912;2023-01-15T12:45:57;3.00;;;1.95;;
40122;SDS011;25832;45.490;4.912;2023-01-15T12:48:34;3.92;;;1.98;;
40122;SDS011;25832;45.490;4.912;2023-01-15T12:52:07;9.77;;;5.35;;
40122;SDS011;25832;45.490;4.912;2023-01-15T12:54:13;12.68;;;6.50;;
40122;SDS011;25832;45.490;4.912;2023-01-15T12:56:47;11.75;;;7.43;;
40122;SDS011;25832;45.490;4.912;2023-01-15T12:59:24;11.02;;;6.10;;
40122;SDS011;25832;45.490;4.912;2023-01-15T13:07:25;5.15;;;3.33;;
40122;SDS011;25832;45.490;4.912;2023-01-15T13:10:25;7.80;;;3.33;;
40122;SDS011;25832;45.490;4.912;2023-01-15T13:12:54;5.60;;;3.28;;
40122;SDS011;25832;45.490;4.912;2023-01-15T13:15:39;4.75;;;2.70;;
40122;SDS011;25832;45.490;4.912;2023-01-15T13:21:15;4.53;;;2.42;;
40122;SDS011;25832;45.490;4.912;2023-01-15T13:26:59;3.53;;;1.48;;
40122;SDS011;25832;45.490;4.912;2023-01-15T13:34:49;2.95;;;1.70;;
40122;SDS011;25832;45.490;4.912;2023-01-15T13:37:33;4.38;;;1.23;;
40122;SDS011;25832;45.490;4.912;2023-01-15T13:40:17;3.85;;;1.88;;
40122;SDS011;25832;45.490;4.912;2023-01-15T13:42:58;4.85;;;2.00;;
40122;SDS011;25832;45.490;4.912;2023-01-15T13:45:41;5.72;;;1.95;;
40122;SDS011;25832;45.490;4.912;2023-01-15T13:48:14;2.20;;;1.33;;
40122;SDS011;25832;45.490;4.912;2023-01-15T13:50:52;1.95;;;1.30;;
40122;SDS011;25832;45.490;4.912;2023-01-15T13:55:53;6.75;;;2.67;;
40122;SDS011;25832;45.490;4.912;2023-01-15T13:58:27;7.30;;;2.47;;
40122;SDS011;25832;45.490;4.912;2023-01-15T14:01:20;4.63;;;1.73;;
40122;SDS011;25832;45.490;4.912;2023-01-15T14:09:05;5.30;;;2.25;;
40122;SDS011;25832;45.490;4.912;2023-01-15T14:36:25;3.58;;;2.15;;
40122;SDS011;25832;45.490;4.912;2023-01-15T14:38:57;3.95;;;1.63;;
40122;SDS011;25832;45.490;4.912;2023-01-15T14:41:26;3.55;;;1.80;;
40122;SDS011;25832;45.490;4.912;2023-01-15T14:43:54;2.17;;;1.60;;
40122;SDS011;25832;45.490;4.912;2023-01-15T14:46:28;2.45;;;1.33;;
40122;SDS011;25832;45.490;4.912;2023-01-15T14:48:58;2.45;;;1.67;;
40122;SDS011;25832;45.490;4.912;2023-01-15T14:51:27;3.97;;;2.03;;
40122;SDS011;25832;45.490;4.912;2023-01-15T14:54:01;3.00;;;1.55;;
40122;SDS011;25832;45.490;4.912;2023-01-15T14:56:35;2.45;;;1.10;;
40122;SDS011;25832;45.490;4.912;2023-01-15T14:59:14;3.00;;;1.42;;
40122;SDS011;25832;45.490;4.912;2023-01-15T15:02:04;3.75;;;1.33;;
40122;SDS011;25832;45.490;4.912;2023-01-15T15:04:48;2.97;;;1.20;;
40122;SDS011;25832;45.490;4.912;2023-01-15T15:07:21;3.50;;;1.80;;
40122;SDS011;25832;45.490;4.912;2023-01-15T15:23:24;2.22;;;1.00;;
40122;SDS011;25832;45.490;4.912;2023-01-15T15:25:54;4.57;;;1.48;;
40122;SDS011;25832;45.490;4.912;2023-01-15T15:28:25;3.33;;;1.17;;
40122;SDS011;25832;45.490;4.912;2023-01-15T15:30:50;2.67;;;1.08;;
40122;SDS011;25832;45.490;4.912;2023-01-15T15:33:23;3.33;;;1.50;;
40122;SDS011;25832;45.490;4.912;2023-01-15T15:35:54;2.75;;;1.15;;
40122;SDS011;25832;45.490;4.912;2023-01-15T15:38:23;2.88;;;1.38;;
40122;SDS011;25832;45.490;4.912;2023-01-15T15:40:58;2.53;;;1.52;;
40122;SDS011;25832;45.490;4.912;2023-01-15T15:46:32;6.47;;;1.42;;
40122;SDS011;25832;45.490;4.912;2023-01-15T15:49:18;2.35;;;1.20;;
40122;SDS011;25832;45.490;4.912;2023-01-15T16:02:06;2.83;;;1.35;;
40122;SDS011;25832;45.490;4.912;2023-01-15T16:04:52;2.80;;;1.20;;
40122;SDS011;25832;45.490;4.912;2023-01-15T16:07:52;1.08;;;0.70;;
40122;SDS011;25832;45.490;4.912;2023-01-15T16:10:15;2.50;;;1.10;;
40122;SDS011;25832;45.490;4.912;2023-01-15T16:12:48;2.28;;;1.15;;
40122;SDS011;25832;45.490;4.912;2023-01-15T16:15:20;2.80;;;1.50;;
40122;SDS011;25832;45.490;4.912;2023-01-15T16:17:48;3.08;;;1.25;;
40122;SDS011;25832;45.490;4.912;2023-01-15T16:20:16;1.27;;;0.82;;
40122;SDS011;25832;45.490;4.912;2023-01-15T16:25:28;1.92;;;1.10;;
40122;SDS011;25832;45.490;4.912;2023-01-15T16:27:58;3.40;;;1.05;;
40122;SDS011;25832;45.490;4.912;2023-01-15T16:30:24;4.40;;;2.20;;
40122;SDS011;25832;45.490;4.912;2023-01-15T16:32:52;4.93;;;2.47;;
40122;SDS011;25832;45.490;4.912;2023-01-15T16:37:56;10.02;;;3.53;;
40122;SDS011;25832;45.490;4.912;2023-01-15T16:45:28;3.50;;;1.17;;
40122;SDS011;25832;45.490;4.912;2023-01-15T16:50:33;3.05;;;0.80;;
40122;SDS011;25832;45.490;4.912;2023-01-15T16:53:00;5.05;;;1.52;;
40122;SDS011;25832;45.490;4.912;2023-01-15T16:55:47;5.13;;;1.10;;
40122;SDS011;25832;45.490;4.912;2023-01-15T16:58:15;5.35;;;1.27;;
40122;SDS011;25832;45.490;4.912;2023-01-15T17:00:51;5.60;;;1.25;;
40122;SDS011;25832;45.490;4.912;2023-01-15T17:03:20;4.22;;;1.27;;
40122;SDS011;25832;45.490;4.912;2023-01-15T17:05:50;3.13;;;0.88;;
40122;SDS011;25832;45.490;4.912;2023-01-15T17:08:35;3.63;;;1.40;;
40122;SDS011;25832;45.490;4.912;2023-01-15T17:11:03;3.20;;;1.55;;
40122;SDS011;25832;45.490;4.912;2023-01-15T17:13:39;2.58;;;1.20;;
40122;SDS011;25832;45.490;4.912;2023-01-15T17:16:14;2.72;;;1.25;;
40122;SDS011;25832;45.490;4.912;2023-01-15T17:18:44;1.75;;;0.98;;
40122;SDS011;25832;45.490;4.912;2023-01-15T17:21:21;2.85;;;1.15;;
40122;SDS011;25832;45.490;4.912;2023-01-15T17:23:52;2.15;;;1.17;;
40122;SDS011;25832;45.490;4.912;2023-01-15T17:26:20;2.50;;;0.98;;
40122;SDS011;25832;45.490;4.912;2023-01-15T17:28:48;6.00;;;1.70;;
40122;SDS011;25832;45.490;4.912;2023-01-15T17:31:19;6.13;;;2.10;;
40122;SDS011;25832;45.490;4.912;2023-01-15T17:33:55;15.10;;;7.40;;
40122;SDS011;25832;45.490;4.912;2023-01-15T17:36:22;16.95;;;7.72;;
40122;SDS011;25832;45.490;4.912;2023-01-15T17:38:49;9.43;;;4.25;;
40122;SDS011;25832;45.490;4.912;2023-01-15T17:41:16;9.48;;;3.00;;
40122;SDS011;25832;45.490;4.912;2023-01-15T17:43:43;4.63;;;2.30;;
40122;SDS011;25832;45.490;4.912;2023-01-15T17:46:09;34.80;;;13.05;;
40122;SDS011;25832;45.490;4.912;2023-01-15T17:48:35;10.85;;;3.60;;
40122;SDS011;25832;45.490;4.912;2023-01-15T17:51:01;6.82;;;3.20;;
40122;SDS011;25832;45.490;4.912;2023-01-15T17:53:28;8.63;;;3.95;;
40122;SDS011;25832;45.490;4.912;2023-01-15T17:55:54;5.00;;;2.15;;
40122;SDS011;25832;45.490;4.912;2023-01-15T17:58:39;4.78;;;1.90;;
40122;SDS011;25832;45.490;4.912;2023-01-15T18:01:24;4.68;;;1.88;;
40122;SDS011;25832;45.490;4.912;2023-01-15T18:07:03;4.38;;;1.45;;